Time,TemperatureF,DewpointF,PressureIn,WindDirection,WindDirectionDegrees,WindSpeedMPH,WindSpeedGustMPH,Humidity,HourlyPrecipIn,Conditions,Clouds,dailyrainin,SoftwareType,DateUTC
2013-11-07 00:02:00,70.7,47.7,30.16,NNE,24,4.5,6.3,44,0.00,,,0.00,WUHU216WMR968SP,2013-11-07 08:02:00,
2013-11-07 00:07:00,71.4,48.3,30.16,NNE,13,4.9,6.3,44,0.00,,,0.00,WUHU216WMR968SP,2013-11-07 08:07:00,
2013-11-07 00:12:00,71.6,48.5,30.16,NNE,19,4.0,6.3,44,0.00,,,0.00,WUHU216WMR968SP,2013-11-07 08:12:00,
2013-11-07 00:17:00,71.4,48.3,30.16,NNE,21,3.1,6.3,44,0.00,,,0.00,WUHU216WMR968SP,2013-11-07 08:17:00,
2013-11-07 00:22:00,71.1,48.0,30.16,North,0,2.7,4.9,44,0.00,,,0.00,WUHU216WMR968SP,2013-11-07 08:22:00,
2013-11-07 00:27:00,70.9,47.8,30.16,NNE,24,3.1,5.4,44,0.00,,,0.00,WUHU216WMR968SP,2013-11-07 08:27:00,
2013-11-07 00:32:00,70.3,47.3,30.16,North,11,2.7,5.8,44,0.00,,,0.00,WUHU216WMR968SP,2013-11-07 08:32:00,
2013-11-07 00:37:00,69.6,47.3,30.16,NNW,340,0.0,5.8,45,0.00,,,0.00,WUHU216WMR968SP,2013-11-07 08:37:00,
2013-11-07 00:42:00,69.1,46.8,30.16,NNW,340,0.0,3.1,45,0.00,,,0.00,WUHU216WMR968SP,2013-11-07 08:42:00,
2013-11-07 00:47:00,68.5,46.3,30.16,North,349,0.0,0.0,45,0.00,,,0.00,WUHU216WMR968SP,2013-11-07 08:47:00,
2013-11-07 00:52:00,68.0,45.8,30.16,NNE,20,3.1,3.6,45,0.00,,,0.00,WUHU216WMR968SP,2013-11-07 08:52:00,
2013-11-07 00:57:00,67.6,45.5,30.16,North,3,3.6,4.0,45,0.00,,,0.00,WUHU216WMR968SP,2013-11-07 08:57:00,
2013-11-07 01:02:00,67.5,45.4,30.16,North,0,3.1,4.0,45,0.00,,,0.00,WUHU216WMR968SP,2013-11-07 09:02:00,
2013-11-07 01:07:00,67.6,45.5,30.16,North,353,2.7,4.0,45,0.00,,,0.00,WUHU216WMR968SP,2013-11-07 09:07:00,
2013-11-07 01:12:00,67.5,45.4,30.16,North,4,3.1,5.4,45,0.00,,,0.00,WUHU216WMR968SP,2013-11-07 09:12:00,
2013-11-07 01:17:00,67.3,45.2,30.16,North,0,2.7,5.4,45,0.00,,,0.00,WUHU216WMR968SP,2013-11-07 09:17:00,
2013-11-07 01:22:00,67.3,45.2,30.16,North,9,2.7,4.0,45,0.00,,,0.00,WUHU216WMR968SP,2013-11-07 09:22:00,
2013-11-07 01:27:00,67.1,45.0,30.16,NNW,340,2.2,4.9,45,0.00,,,0.00,WUHU216WMR968SP,2013-11-07 09:27:00,
2013-11-07 01:32:00,66.7,44.6,30.16,NNE,15,2.7,4.9,45,0.00,,,0.00,WUHU216WMR968SP,2013-11-07 09:32:00,
2013-11-07 01:37:00,66.4,44.4,30.16,North,357,2.7,4.9,45,0.00,,,0.00,WUHU216WMR968SP,2013-11-07 09:37:00,
2013-11-07 01:42:00,66.0,44.0,30.16,NNE,14,2.7,4.9,45,0.00,,,0.00,WUHU216WMR968SP,2013-11-07 09:42:00,
2013-11-07 01:47:00,66.0,44.0,30.16,North,4,2.7,4.0,45,0.00,,,0.00,WUHU216WMR968SP,2013-11-07 09:47:00,
2013-11-07 01:52:00,65.8,43.8,30.16,NNE,32,2.2,4.0,45,0.00,,,0.00,WUHU216WMR968SP,2013-11-07 09:52:00,
2013-11-07 01:57:00,65.8,43.8,30.16,North,10,2.7,3.6,45,0.00,,,0.00,WUHU216WMR968SP,2013-11-07 09:57:00,
2013-11-07 02:02:00,65.7,43.7,30.16,North,357,3.1,4.0,45,0.00,,,0.00,WUHU216WMR968SP,2013-11-07 10:02:00,
2013-11-07 02:07:00,65.5,43.5,30.16,North,2,2.2,4.0,45,0.00,,,0.00,WUHU216WMR968SP,2013-11-07 10:07:00,
2013-11-07 02:12:00,65.3,43.4,30.16,NNE,12,2.7,4.0,45,0.00,,,0.00,WUHU216WMR968SP,2013-11-07 10:12:00,
2013-11-07 02:17:00,65.3,43.4,30.16,North,0,2.7,4.0,45,0.00,,,0.00,WUHU216WMR968SP,2013-11-07 10:17:00,
2013-11-07 02:22:00,65.3,43.4,30.16,North,7,3.1,4.5,45,0.00,,,0.00,WUHU216WMR968SP,2013-11-07 10:22:00,
2013-11-07 02:27:00,65.3,43.4,30.16,North,0,2.7,4.9,45,0.00,,,0.00,WUHU216WMR968SP,2013-11-07 10:27:00,
2013-11-07 02:32:00,65.3,43.4,30.16,NNE,19,3.1,5.4,45,0.00,,,0.00,WUHU216WMR968SP,2013-11-07 10:32:00,
2013-11-07 02:37:00,65.3,43.4,30.16,North,357,3.1,5.4,45,0.00,,,0.00,WUHU216WMR968SP,2013-11-07 10:37:00,
2013-11-07 02:42:00,65.5,43.5,30.13,North,5,3.1,4.0,45,0.00,,,0.00,WUHU216WMR968SP,2013-11-07 10:42:00,
2013-11-07 02:47:00,65.7,43.7,30.13,NNE,14,3.6,4.9,45,0.00,,,0.00,WUHU216WMR968SP,2013-11-07 10:47:00,
2013-11-07 02:53:00,65.7,43.7,30.13,North,3,3.6,5.4,45,0.00,,,0.00,WUHU216WMR968SP,2013-11-07 10:53:00,
2013-11-07 02:58:00,65.7,43.7,30.13,NNE,19,3.6,5.8,45,0.00,,,0.00,WUHU216WMR968SP,2013-11-07 10:58:00,
2013-11-07 03:03:00,65.5,43.5,30.13,NNE,15,4.0,6.3,45,0.00,,,0.00,WUHU216WMR968SP,2013-11-07 11:03:00,
2013-11-07 03:08:00,65.5,43.5,30.13,North,353,3.1,6.3,45,0.00,,,0.00,WUHU216WMR968SP,2013-11-07 11:08:00,
2013-11-07 03:13:00,65.5,43.5,30.13,North,6,3.6,7.2,45,0.00,,,0.00,WUHU216WMR968SP,2013-11-07 11:13:00,
2013-11-07 03:18:00,65.5,43.5,30.13,North,7,3.6,7.2,45,0.00,,,0.00,WUHU216WMR968SP,2013-11-07 11:18:00,
2013-11-07 03:23:00,65.5,43.5,30.13,NNW,333,2.7,5.4,45,0.00,,,0.00,WUHU216WMR968SP,2013-11-07 11:23:00,
2013-11-07 03:28:00,65.3,43.4,30.16,North,0,4.0,6.3,45,0.00,,,0.00,WUHU216WMR968SP,2013-11-07 11:28:00,
2013-11-07 03:33:00,65.1,43.2,30.16,North,2,3.6,6.3,45,0.00,,,0.00,WUHU216WMR968SP,2013-11-07 11:33:00,
2013-11-07 03:38:00,64.8,42.9,30.16,NNE,15,4.5,6.3,45,0.00,,,0.00,WUHU216WMR968SP,2013-11-07 11:38:00,
2013-11-07 03:43:00,64.6,42.7,30.16,North,9,3.6,6.3,45,0.00,,,0.00,WUHU216WMR968SP,2013-11-07 11:43:00,
2013-11-07 03:48:00,64.4,42.5,30.16,North,0,4.0,6.7,45,0.00,,,0.00,WUHU216WMR968SP,2013-11-07 11:48:00,
2013-11-07 03:53:00,64.4,42.5,30.16,NNE,22,4.0,6.7,45,0.00,,,0.00,WUHU216WMR968SP,2013-11-07 11:53:00,
2013-11-07 03:58:00,64.2,42.9,30.13,North,5,3.1,5.8,46,0.00,,,0.00,WUHU216WMR968SP,2013-11-07 11:58:00,
2013-11-07 04:03:00,64.2,42.9,30.13,NNE,16,4.0,5.8,46,0.00,,,0.00,WUHU216WMR968SP,2013-11-07 12:03:00,
2013-11-07 04:08:00,64.9,43.0,30.13,North,7,4.9,5.8,45,0.00,,,0.00,WUHU216WMR968SP,2013-11-07 12:08:00,
2013-11-07 04:13:00,65.5,43.5,30.13,NNE,13,2.2,5.8,45,0.00,,,0.00,WUHU216WMR968SP,2013-11-07 12:13:00,
2013-11-07 04:18:00,66.0,44.0,30.13,North,357,4.9,6.7,45,0.00,,,0.00,WUHU216WMR968SP,2013-11-07 12:18:00,
2013-11-07 04:23:00,66.4,44.4,30.13,North,5,3.1,6.7,45,0.00,,,0.00,WUHU216WMR968SP,2013-11-07 12:23:00,
2013-11-07 04:28:00,66.6,44.5,30.13,East,96,0.0,4.9,45,0.00,,,0.00,WUHU216WMR968SP,2013-11-07 12:28:00,
2013-11-07 04:33:00,67.6,45.5,30.13,East,97,3.1,7.2,45,0.00,,,0.00,WUHU216WMR968SP,2013-11-07 12:33:00,
2013-11-07 04:38:00,68.4,46.2,30.13,East,88,0.0,7.2,45,0.00,,,0.00,WUHU216WMR968SP,2013-11-07 12:38:00,
2013-11-07 04:43:00,68.9,46.6,30.13,NNW,340,0.0,4.9,45,0.00,,,0.00,WUHU216WMR968SP,2013-11-07 12:43:00,
2013-11-07 04:48:00,69.3,47.0,30.13,ENE,65,0.0,4.5,45,0.00,,,0.00,WUHU216WMR968SP,2013-11-07 12:48:00,
2013-11-07 04:53:00,69.4,47.1,30.13,ESE,119,0.0,4.5,45,0.00,,,0.00,WUHU216WMR968SP,2013-11-07 12:53:00,
2013-11-07 04:58:00,69.4,47.1,30.16,ESE,102,3.1,5.4,45,0.00,,,0.00,WUHU216WMR968SP,2013-11-07 12:58:00,
2013-11-07 05:03:00,69.3,47.0,30.16,East,83,2.7,6.3,45,0.00,,,0.00,WUHU216WMR968SP,2013-11-07 13:03:00,
2013-11-07 05:08:00,69.4,47.1,30.16,NE,47,0.0,6.3,45,0.00,,,0.00,WUHU216WMR968SP,2013-11-07 13:08:00,
2013-11-07 05:13:00,69.4,47.1,30.13,ESE,108,4.0,5.8,45,0.00,,,0.00,WUHU216WMR968SP,2013-11-07 13:13:00,
2013-11-07 05:18:00,69.4,47.1,30.13,East,95,3.1,6.7,45,0.00,,,0.00,WUHU216WMR968SP,2013-11-07 13:18:00,
2013-11-07 05:23:00,69.8,46.8,30.13,ESE,116,3.1,6.7,44,0.00,,,0.00,WUHU216WMR968SP,2013-11-07 13:23:00,
2013-11-07 05:28:00,69.8,46.8,30.13,ENE,58,2.7,6.3,44,0.00,,,0.00,WUHU216WMR968SP,2013-11-07 13:28:00,
2013-11-07 05:33:00,69.8,46.8,30.13,ESE,114,0.0,5.8,44,0.00,,,0.00,WUHU216WMR968SP,2013-11-07 13:33:00,
2013-11-07 05:38:00,69.8,46.8,30.13,ENE,76,0.0,5.8,44,0.00,,,0.00,WUHU216WMR968SP,2013-11-07 13:38:00,
2013-11-07 05:43:00,70.0,47.0,30.16,NE,41,2.7,5.8,44,0.00,,,0.00,WUHU216WMR968SP,2013-11-07 13:43:00,
2013-11-07 05:48:00,70.0,47.0,30.16,East,101,3.1,8.7,44,0.00,,,0.00,WUHU216WMR968SP,2013-11-07 13:48:00,
2013-11-07 05:53:00,70.3,47.3,30.16,ESE,103,3.1,8.7,44,0.00,,,0.00,WUHU216WMR968SP,2013-11-07 13:53:00,
2013-11-07 05:58:00,70.7,47.7,30.16,ESE,105,2.7,4.9,44,0.00,,,0.00,WUHU216WMR968SP,2013-11-07 13:58:00,
2013-11-07 06:03:00,70.5,47.5,30.16,NNE,31,0.0,4.9,44,0.00,,,0.00,WUHU216WMR968SP,2013-11-07 14:03:00,
2013-11-07 06:08:00,70.3,47.3,30.16,ESE,110,0.0,6.3,44,0.00,,,0.00,WUHU216WMR968SP,2013-11-07 14:08:00,
2013-11-07 06:13:00,70.3,47.3,30.16,ESE,111,3.1,6.3,44,0.00,,,0.00,WUHU216WMR968SP,2013-11-07 14:13:00,
2013-11-07 06:18:00,70.5,47.5,30.16,NNE,23,0.0,6.3,44,0.00,,,0.00,WUHU216WMR968SP,2013-11-07 14:18:00,
2013-11-07 06:23:00,70.9,47.8,30.16,ENE,60,0.0,5.4,44,0.00,,,0.00,WUHU216WMR968SP,2013-11-07 14:23:00,
2013-11-07 06:28:00,71.1,48.0,30.16,North,2,3.1,5.4,44,0.00,,,0.00,WUHU216WMR968SP,2013-11-07 14:28:00,
2013-11-07 06:33:00,71.1,48.0,30.16,North,2,2.2,3.6,44,0.00,,,0.00,WUHU216WMR968SP,2013-11-07 14:33:00,
2013-11-07 06:38:00,71.1,48.0,30.16,NNE,27,2.7,5.8,44,0.00,,,0.00,WUHU216WMR968SP,2013-11-07 14:38:00,
2013-11-07 06:43:00,71.2,48.1,30.16,ESE,116,3.1,7.6,44,0.00,,,0.00,WUHU216WMR968SP,2013-11-07 14:43:00,
2013-11-07 06:48:00,71.2,48.1,30.16,SE,144,2.7,7.6,44,0.00,,,0.00,WUHU216WMR968SP,2013-11-07 14:48:00,
2013-11-07 06:53:00,71.4,48.3,30.16,NE,37,0.0,5.8,44,0.00,,,0.00,WUHU216WMR968SP,2013-11-07 14:53:00,
2013-11-07 06:58:00,71.8,48.7,30.16,NE,52,4.5,7.6,44,0.00,,,0.00,WUHU216WMR968SP,2013-11-07 14:58:00,
2013-11-07 07:03:00,72.0,48.9,30.16,NE,46,0.0,7.6,44,0.00,,,0.00,WUHU216WMR968SP,2013-11-07 15:03:00,
2013-11-07 07:08:00,72.0,48.9,30.16,SSE,150,0.0,4.9,44,0.00,,,0.00,WUHU216WMR968SP,2013-11-07 15:08:00,
2013-11-07 07:13:00,71.8,48.7,30.16,ESE,123,2.2,3.6,44,0.00,,,0.00,WUHU216WMR968SP,2013-11-07 15:13:00,
2013-11-07 07:18:00,71.4,48.3,30.16,East,95,2.7,6.3,44,0.00,,,0.00,WUHU216WMR968SP,2013-11-07 15:18:00,
2013-11-07 07:23:00,71.1,48.0,30.16,ENE,66,0.0,6.3,44,0.00,,,0.00,WUHU216WMR968SP,2013-11-07 15:23:00,
2013-11-07 07:28:00,70.9,47.8,30.13,NE,41,0.0,4.9,44,0.00,,,0.00,WUHU216WMR968SP,2013-11-07 15:28:00,
2013-11-07 07:33:00,70.7,47.7,30.13,NE,41,0.0,2.2,44,0.00,,,0.00,WUHU216WMR968SP,2013-11-07 15:33:00,
2013-11-07 07:38:00,70.3,47.3,30.13,NE,41,0.0,0.0,44,0.00,,,0.00,WUHU216WMR968SP,2013-11-07 15:38:00,
2013-11-07 07:43:00,69.8,46.8,30.16,NE,37,0.0,0.0,44,0.00,,,0.00,WUHU216WMR968SP,2013-11-07 15:43:00,
2013-11-07 07:48:00,69.3,47.0,30.16,NE,38,0.0,0.0,45,0.00,,,0.00,WUHU216WMR968SP,2013-11-07 15:48:00,
2013-11-07 07:53:00,69.3,47.0,30.16,NE,37,0.0,0.0,45,0.00,,,0.00,WUHU216WMR968SP,2013-11-07 15:53:00,
2013-11-07 07:58:00,69.4,47.1,30.16,NE,37,0.0,0.0,45,0.00,,,0.00,WUHU216WMR968SP,2013-11-07 15:58:00,
2013-11-07 08:03:00,69.8,46.8,30.16,NE,36,0.0,0.0,44,0.00,,,0.00,WUHU216WMR968SP,2013-11-07 16:03:00,
2013-11-07 08:08:00,70.3,47.3,30.16,NNE,31,0.0,0.0,44,0.00,,,0.00,WUHU216WMR968SP,2013-11-07 16:08:00,
2013-11-07 08:13:00,70.7,47.7,30.16,NNE,31,0.0,0.0,44,0.00,,,0.00,WUHU216WMR968SP,2013-11-07 16:13:00,
2013-11-07 08:18:00,71.2,48.1,30.16,NNE,31,0.0,0.0,44,0.00,,,0.00,WUHU216WMR968SP,2013-11-07 16:18:00,
2013-11-07 08:23:00,72.0,48.9,30.16,North,8,2.2,3.1,44,0.00,,,0.00,WUHU216WMR968SP,2013-11-07 16:23:00,
2013-11-07 08:28:00,72.1,48.9,30.16,North,353,0.0,3.1,44,0.00,,,0.00,WUHU216WMR968SP,2013-11-07 16:28:00,
2013-11-07 08:33:00,72.3,49.1,30.16,NNW,334,0.0,3.6,44,0.00,,,0.00,WUHU216WMR968SP,2013-11-07 16:33:00,
2013-11-07 08:38:00,72.5,49.3,30.16,NNE,29,2.2,4.0,44,0.00,,,0.00,WUHU216WMR968SP,2013-11-07 16:38:00,
2013-11-07 08:43:00,72.5,49.3,30.16,NW,325,3.1,4.0,44,0.00,,,0.00,WUHU216WMR968SP,2013-11-07 16:43:00,
2013-11-07 08:48:00,72.7,49.5,30.16,NNE,27,2.2,3.6,44,0.00,,,0.00,WUHU216WMR968SP,2013-11-07 16:48:00,
2013-11-07 08:53:00,72.9,49.7,30.16,North,349,3.1,5.4,44,0.00,,,0.00,WUHU216WMR968SP,2013-11-07 16:53:00,
2013-11-07 08:58:00,72.9,49.7,30.16,North,11,3.6,5.4,44,0.00,,,0.00,WUHU216WMR968SP,2013-11-07 16:58:00,
2013-11-07 09:03:00,73.0,49.8,30.16,North,353,3.6,6.3,44,0.00,,,0.00,WUHU216WMR968SP,2013-11-07 17:03:00,
2013-11-07 09:08:00,73.2,49.9,30.16,North,8,2.2,6.3,44,0.00,,,0.00,WUHU216WMR968SP,2013-11-07 17:08:00,
2013-11-07 09:13:00,73.4,49.5,30.16,NNE,28,2.2,4.9,43,0.00,,,0.00,WUHU216WMR968SP,2013-11-07 17:13:00,
2013-11-07 09:18:00,73.2,49.9,30.16,NNE,15,3.1,4.9,44,0.00,,,0.00,WUHU216WMR968SP,2013-11-07 17:18:00,
2013-11-07 09:23:00,73.6,49.7,30.16,NNW,345,2.7,4.9,43,0.00,,,0.00,WUHU216WMR968SP,2013-11-07 17:23:00,
2013-11-07 09:28:00,73.8,49.9,30.16,North,0,2.7,5.4,43,0.00,,,0.00,WUHU216WMR968SP,2013-11-07 17:28:00,
2013-11-07 09:33:00,74.3,50.3,30.16,NNE,17,0.0,5.4,43,0.00,,,0.00,WUHU216WMR968SP,2013-11-07 17:33:00,
2013-11-07 09:38:00,75.0,50.9,30.16,North,5,0.0,3.6,43,0.00,,,0.00,WUHU216WMR968SP,2013-11-07 17:38:00,
2013-11-07 09:43:00,75.7,51.6,30.16,NNE,28,2.2,3.6,43,0.00,,,0.00,WUHU216WMR968SP,2013-11-07 17:43:00,
2013-11-07 09:48:00,76.3,52.1,30.16,North,10,2.2,4.9,43,0.00,,,0.00,WUHU216WMR968SP,2013-11-07 17:48:00,
2013-11-07 09:53:00,76.5,52.3,30.16,North,350,0.0,4.9,43,0.00,,,0.00,WUHU216WMR968SP,2013-11-07 17:53:00,
2013-11-07 09:58:00,76.6,52.4,30.16,North,349,0.0,3.1,43,0.00,,,0.00,WUHU216WMR968SP,2013-11-07 17:58:00,
2013-11-07 10:03:00,76.8,52.6,30.16,North,10,2.7,3.6,43,0.00,,,0.00,WUHU216WMR968SP,2013-11-07 18:03:00,
2013-11-07 10:08:00,77.2,52.9,30.16,North,6,0.0,4.0,43,0.00,,,0.00,WUHU216WMR968SP,2013-11-07 18:08:00,
2013-11-07 10:13:00,77.2,52.9,30.16,NNE,16,0.0,5.4,43,0.00,,,0.00,WUHU216WMR968SP,2013-11-07 18:13:00,
2013-11-07 10:18:00,77.4,53.1,30.16,North,2,2.2,5.4,43,0.00,,,0.00,WUHU216WMR968SP,2013-11-07 18:18:00,
2013-11-07 10:23:00,77.5,53.2,30.16,North,357,2.7,5.4,43,0.00,,,0.00,WUHU216WMR968SP,2013-11-07 18:23:00,
2013-11-07 10:28:00,77.7,53.4,30.13,North,1,3.1,4.9,43,0.00,,,0.00,WUHU216WMR968SP,2013-11-07 18:28:00,
2013-11-07 10:33:00,77.9,53.6,30.13,NNE,21,0.0,4.9,43,0.00,,,0.00,WUHU216WMR968SP,2013-11-07 18:33:00,
2013-11-07 10:38:00,78.3,53.9,30.13,North,357,2.7,3.6,43,0.00,,,0.00,WUHU216WMR968SP,2013-11-07 18:38:00,
2013-11-07 10:43:00,78.4,54.0,30.13,North,357,0.0,3.6,43,0.00,,,0.00,WUHU216WMR968SP,2013-11-07 18:43:00,
2013-11-07 10:48:00,78.6,54.2,30.13,NNE,27,2.2,3.6,43,0.00,,,0.00,WUHU216WMR968SP,2013-11-07 18:48:00,
2013-11-07 10:53:00,79.3,54.2,30.13,North,7,0.0,4.0,42,0.00,,,0.00,WUHU216WMR968SP,2013-11-07 18:53:00,
2013-11-07 10:58:00,79.5,54.4,30.13,North,350,2.2,4.0,42,0.00,,,0.00,WUHU216WMR968SP,2013-11-07 18:58:00,
2013-11-07 11:03:00,79.5,54.4,30.13,NNE,15,0.0,3.6,42,0.00,,,0.00,WUHU216WMR968SP,2013-11-07 19:03:00,
2013-11-07 11:08:00,79.9,54.7,30.13,NNW,343,0.0,3.6,42,0.00,,,0.00,WUHU216WMR968SP,2013-11-07 19:08:00,
2013-11-07 11:13:00,80.2,55.0,30.13,North,353,0.0,4.0,42,0.00,,,0.00,WUHU216WMR968SP,2013-11-07 19:13:00,
2013-11-07 11:18:00,80.6,55.4,30.13,North,353,2.2,4.0,42,0.00,,,0.00,WUHU216WMR968SP,2013-11-07 19:18:00,
2013-11-07 11:23:00,80.8,55.5,30.13,North,9,0.0,4.0,42,0.00,,,0.00,WUHU216WMR968SP,2013-11-07 19:23:00,
2013-11-07 11:28:00,81.3,56.0,30.10,NNE,18,0.0,3.1,42,0.00,,,0.00,WUHU216WMR968SP,2013-11-07 19:28:00,
2013-11-07 11:33:00,81.9,56.5,30.10,East,93,0.0,3.1,42,0.00,,,0.00,WUHU216WMR968SP,2013-11-07 19:33:00,
2013-11-07 11:38:00,81.9,56.5,30.10,NNW,338,2.2,3.1,42,0.00,,,0.00,WUHU216WMR968SP,2013-11-07 19:38:00,
2013-11-07 11:43:00,81.7,56.3,30.10,North,357,0.0,3.1,42,0.00,,,0.00,WUHU216WMR968SP,2013-11-07 19:43:00,
2013-11-07 11:48:00,81.9,56.5,30.10,SW,231,0.0,4.0,42,0.00,,,0.00,WUHU216WMR968SP,2013-11-07 19:48:00,
2013-11-07 11:53:00,82.6,56.5,30.10,ENE,74,2.7,5.8,41,0.00,,,0.00,WUHU216WMR968SP,2013-11-07 19:53:00,
2013-11-07 11:58:00,83.5,57.3,30.10,SW,225,3.1,5.8,41,0.00,,,0.00,WUHU216WMR968SP,2013-11-07 19:58:00,
2013-11-07 12:03:00,83.7,57.5,30.10,North,357,0.0,4.5,41,0.00,,,0.00,WUHU216WMR968SP,2013-11-07 20:03:00,
2013-11-07 12:08:00,83.7,57.5,30.10,WNW,287,0.0,4.0,41,0.00,,,0.00,WUHU216WMR968SP,2013-11-07 20:08:00,
2013-11-07 12:13:00,83.7,57.5,30.07,SSW,192,0.0,5.4,41,0.00,,,0.00,WUHU216WMR968SP,2013-11-07 20:13:00,
2013-11-07 12:18:00,83.8,57.6,30.07,SSW,210,3.1,5.4,41,0.00,,,0.00,WUHU216WMR968SP,2013-11-07 20:18:00,
2013-11-07 12:23:00,84.0,57.7,30.07,WNW,287,0.0,5.4,41,0.00,,,0.00,WUHU216WMR968SP,2013-11-07 20:23:00,
2013-11-07 12:28:00,83.8,57.6,30.07,WSW,251,3.1,5.4,41,0.00,,,0.00,WUHU216WMR968SP,2013-11-07 20:28:00,
2013-11-07 12:33:00,83.5,57.3,30.07,SSW,202,0.0,5.4,41,0.00,,,0.00,WUHU216WMR968SP,2013-11-07 20:33:00,
2013-11-07 12:38:00,83.3,57.1,30.07,SW,235,3.6,5.4,41,0.00,,,0.00,WUHU216WMR968SP,2013-11-07 20:38:00,
2013-11-07 12:43:00,83.3,57.1,30.07,SSW,199,0.0,5.4,41,0.00,,,0.00,WUHU216WMR968SP,2013-11-07 20:43:00,
2013-11-07 12:48:00,83.3,57.1,30.07,SW,219,0.0,4.9,41,0.00,,,0.00,WUHU216WMR968SP,2013-11-07 20:48:00,
2013-11-07 12:53:00,83.3,57.1,30.07,SSW,203,3.6,5.4,41,0.00,,,0.00,WUHU216WMR968SP,2013-11-07 20:53:00,
2013-11-07 12:58:00,83.5,57.3,30.07,WNW,297,3.1,5.4,41,0.00,,,0.00,WUHU216WMR968SP,2013-11-07 20:58:00,
2013-11-07 13:03:00,83.3,57.1,30.07,SW,222,3.1,6.3,41,0.00,,,0.00,WUHU216WMR968SP,2013-11-07 21:03:00,
2013-11-07 13:08:00,83.3,57.1,30.07,SW,228,2.2,6.3,41,0.00,,,0.00,WUHU216WMR968SP,2013-11-07 21:08:00,
2013-11-07 13:13:00,83.5,57.3,30.04,WSW,245,3.1,5.4,41,0.00,,,0.00,WUHU216WMR968SP,2013-11-07 21:13:00,
2013-11-07 13:18:00,83.7,57.5,30.04,SSW,202,0.0,5.4,41,0.00,,,0.00,WUHU216WMR968SP,2013-11-07 21:18:00,
2013-11-07 13:23:00,83.8,57.6,30.04,West,265,3.1,7.6,41,0.00,,,0.00,WUHU216WMR968SP,2013-11-07 21:23:00,
2013-11-07 13:28:00,84.0,57.7,30.04,SW,233,3.1,7.6,41,0.00,,,0.00,WUHU216WMR968SP,2013-11-07 21:28:00,
2013-11-07 13:33:00,84.2,57.9,30.04,SSW,203,3.6,6.3,41,0.00,,,0.00,WUHU216WMR968SP,2013-11-07 21:33:00,
2013-11-07 13:38:00,84.6,58.3,30.04,NW,322,4.5,6.3,41,0.00,,,0.00,WUHU216WMR968SP,2013-11-07 21:38:00,
2013-11-07 13:43:00,84.7,58.4,30.04,NW,312,0.0,6.3,41,0.00,,,0.00,WUHU216WMR968SP,2013-11-07 21:43:00,
2013-11-07 13:48:00,84.7,58.4,30.04,NW,316,4.0,6.3,41,0.00,,,0.00,WUHU216WMR968SP,2013-11-07 21:48:00,
2013-11-07 13:53:00,84.4,58.1,30.04,WSW,246,3.6,8.1,41,0.00,,,0.00,WUHU216WMR968SP,2013-11-07 21:53:00,
2013-11-07 13:58:00,84.4,58.1,30.04,WSW,242,3.1,8.1,41,0.00,,,0.00,WUHU216WMR968SP,2013-11-07 21:58:00,
2013-11-07 14:03:00,84.4,58.1,30.04,WSW,237,4.0,6.3,41,0.00,,,0.00,WUHU216WMR968SP,2013-11-07 22:03:00,
2013-11-07 14:08:00,84.2,57.9,30.04,SW,226,4.0,6.3,41,0.00,,,0.00,WUHU216WMR968SP,2013-11-07 22:08:00,
2013-11-07 14:13:00,84.2,57.9,30.04,WNW,289,3.1,7.6,41,0.00,,,0.00,WUHU216WMR968SP,2013-11-07 22:13:00,
2013-11-07 14:18:00,84.2,57.9,30.04,SW,219,4.9,8.1,41,0.00,,,0.00,WUHU216WMR968SP,2013-11-07 22:18:00,
2013-11-07 14:23:00,84.6,58.3,30.04,SSW,213,3.1,8.1,41,0.00,,,0.00,WUHU216WMR968SP,2013-11-07 22:23:00,
2013-11-07 14:28:00,84.7,58.4,30.01,WSW,239,3.1,8.1,41,0.00,,,0.00,WUHU216WMR968SP,2013-11-07 22:28:00,
2013-11-07 14:33:00,84.6,58.3,30.01,West,261,3.6,8.7,41,0.00,,,0.00,WUHU216WMR968SP,2013-11-07 22:33:00,
2013-11-07 14:38:00,84.4,58.1,30.01,SW,222,3.6,8.7,41,0.00,,,0.00,WUHU216WMR968SP,2013-11-07 22:38:00,
2013-11-07 14:43:00,84.4,58.1,30.01,SW,219,5.4,7.2,41,0.00,,,0.00,WUHU216WMR968SP,2013-11-07 22:43:00,
2013-11-07 14:48:00,84.2,57.9,30.01,NNW,327,5.4,8.3,41,0.00,,,0.00,WUHU216WMR968SP,2013-11-07 22:48:00,
2013-11-07 14:53:00,84.2,57.9,30.01,SW,216,2.7,8.3,41,0.00,,,0.00,WUHU216WMR968SP,2013-11-07 22:53:00,
2013-11-07 14:58:00,84.4,58.1,30.01,WSW,247,3.6,6.7,41,0.00,,,0.00,WUHU216WMR968SP,2013-11-07 22:58:00,
2013-11-07 15:03:00,84.4,58.1,30.01,SW,236,3.6,8.1,41,0.00,,,0.00,WUHU216WMR968SP,2013-11-07 23:03:00,
2013-11-07 15:08:00,84.0,57.7,30.01,SW,220,5.4,8.3,41,0.00,,,0.00,WUHU216WMR968SP,2013-11-07 23:08:00,
2013-11-07 15:13:00,84.0,57.7,30.01,WSW,252,4.0,8.3,41,0.00,,,0.00,WUHU216WMR968SP,2013-11-07 23:13:00,
2013-11-07 15:18:00,83.8,57.6,30.01,SW,235,4.0,7.2,41,0.00,,,0.00,WUHU216WMR968SP,2013-11-07 23:18:00,
2013-11-07 15:23:00,83.7,57.5,30.01,WSW,241,4.5,6.3,41,0.00,,,0.00,WUHU216WMR968SP,2013-11-07 23:23:00,
2013-11-07 15:28:00,83.7,57.5,30.01,West,280,2.7,6.3,41,0.00,,,0.00,WUHU216WMR968SP,2013-11-07 23:28:00,
2013-11-07 15:33:00,83.7,57.5,30.01,NW,315,3.1,5.8,41,0.00,,,0.00,WUHU216WMR968SP,2013-11-07 23:33:00,
2013-11-07 15:38:00,83.5,57.3,30.01,SW,229,3.6,4.9,41,0.00,,,0.00,WUHU216WMR968SP,2013-11-07 23:38:00,
2013-11-07 15:43:00,83.3,57.1,30.01,West,266,4.5,5.8,41,0.00,,,0.00,WUHU216WMR968SP,2013-11-07 23:43:00,
2013-11-07 15:48:00,83.1,56.9,30.01,SW,230,3.6,5.8,41,0.00,,,0.00,WUHU216WMR968SP,2013-11-07 23:48:00,
2013-11-07 15:53:00,82.9,56.7,30.01,WSW,240,4.0,5.4,41,0.00,,,0.00,WUHU216WMR968SP,2013-11-07 23:53:00,
2013-11-07 15:58:00,82.8,56.7,30.01,WSW,243,3.1,5.4,41,0.00,,,0.00,WUHU216WMR968SP,2013-11-07 23:58:00,
2013-11-07 16:03:00,82.6,56.5,30.01,SW,232,4.0,6.3,41,0.00,,,0.00,WUHU216WMR968SP,2013-11-08 00:03:00,
2013-11-07 16:08:00,82.4,56.3,30.01,WSW,256,2.7,6.3,41,0.00,,,0.00,WUHU216WMR968SP,2013-11-08 00:08:00,
2013-11-07 16:13:00,81.9,56.5,30.01,WSW,253,2.2,5.8,42,0.00,,,0.00,WUHU216WMR968SP,2013-11-08 00:13:00,
2013-11-07 16:18:00,81.5,56.2,30.01,WSW,246,4.0,5.8,42,0.00,,,0.00,WUHU216WMR968SP,2013-11-08 00:18:00,
2013-11-07 16:23:00,81.0,55.7,30.01,WSW,238,2.7,5.8,42,0.00,,,0.00,WUHU216WMR968SP,2013-11-08 00:23:00,
2013-11-07 16:28:00,80.4,55.2,30.01,WSW,255,0.0,5.4,42,0.00,,,0.00,WUHU216WMR968SP,2013-11-08 00:28:00,
2013-11-07 16:33:00,79.7,54.5,30.01,WSW,247,0.0,5.4,42,0.00,,,0.00,WUHU216WMR968SP,2013-11-08 00:33:00,
2013-11-07 16:38:00,79.0,53.9,30.01,WSW,247,0.0,3.6,42,0.00,,,0.00,WUHU216WMR968SP,2013-11-08 00:38:00,
2013-11-07 16:43:00,77.9,53.6,30.01,WSW,245,3.1,4.9,43,0.00,,,0.00,WUHU216WMR968SP,2013-11-08 00:43:00,
2013-11-07 16:48:00,77.2,52.9,30.01,WNW,299,0.0,4.9,43,0.00,,,0.00,WUHU216WMR968SP,2013-11-08 00:48:00,
2013-11-07 16:53:00,76.6,52.4,30.01,WSW,249,3.1,4.0,43,0.00,,,0.00,WUHU216WMR968SP,2013-11-08 00:53:00,
2013-11-07 16:58:00,76.1,51.9,30.01,WNW,303,0.0,4.0,43,0.00,,,0.00,WUHU216WMR968SP,2013-11-08 00:58:00,
2013-11-07 17:03:00,75.6,51.5,30.01,WNW,303,0.0,3.6,43,0.00,,,0.00,WUHU216WMR968SP,2013-11-08 01:03:00,
2013-11-07 17:08:00,75.2,51.1,30.01,WNW,303,0.0,2.2,43,0.00,,,0.00,WUHU216WMR968SP,2013-11-08 01:08:00,
2013-11-07 17:13:00,74.5,50.5,30.01,WNW,303,0.0,0.0,43,0.00,,,0.00,WUHU216WMR968SP,2013-11-08 01:13:00,
2013-11-07 17:18:00,73.8,49.9,30.01,WNW,303,0.0,0.0,43,0.00,,,0.00,WUHU216WMR968SP,2013-11-08 01:18:00,
2013-11-07 17:23:00,73.0,49.8,30.01,WNW,303,0.0,0.0,44,0.00,,,0.00,WUHU216WMR968SP,2013-11-08 01:23:00,
2013-11-07 17:28:00,72.5,49.3,30.04,WNW,303,0.0,0.0,44,0.00,,,0.00,WUHU216WMR968SP,2013-11-08 01:28:00,
2013-11-07 17:33:00,72.0,48.9,30.04,WNW,303,0.0,0.0,44,0.00,,,0.00,WUHU216WMR968SP,2013-11-08 01:33:00,
2013-11-07 17:38:00,71.4,48.3,30.04,WNW,303,0.0,0.0,44,0.00,,,0.00,WUHU216WMR968SP,2013-11-08 01:38:00,
2013-11-07 17:43:00,71.1,48.0,30.04,WNW,303,0.0,0.0,44,0.00,,,0.00,WUHU216WMR968SP,2013-11-08 01:43:00,
2013-11-07 17:49:00,70.7,47.7,30.04,WNW,303,0.0,0.0,44,0.00,,,0.00,WUHU216WMR968SP,2013-11-08 01:49:00,
2013-11-07 17:54:00,70.5,47.5,30.04,WNW,303,0.0,0.0,44,0.00,,,0.00,WUHU216WMR968SP,2013-11-08 01:54:00,
2013-11-07 17:59:00,70.2,47.2,30.04,WNW,303,0.0,0.0,44,0.00,,,0.00,WUHU216WMR968SP,2013-11-08 01:59:00,
2013-11-07 18:04:00,69.8,46.8,30.04,WNW,303,0.0,0.0,44,0.00,,,0.00,WUHU216WMR968SP,2013-11-08 02:04:00,
2013-11-07 18:09:00,69.3,47.0,30.04,WNW,303,0.0,0.0,45,0.00,,,0.00,WUHU216WMR968SP,2013-11-08 02:09:00,
2013-11-07 18:14:00,68.9,46.6,30.04,WNW,303,0.0,0.0,45,0.00,,,0.00,WUHU216WMR968SP,2013-11-08 02:14:00,
2013-11-07 18:19:00,68.7,46.5,30.04,WNW,303,0.0,0.0,45,0.00,,,0.00,WUHU216WMR968SP,2013-11-08 02:19:00,
2013-11-07 18:24:00,68.4,46.2,30.04,North,3,0.0,0.0,45,0.00,,,0.00,WUHU216WMR968SP,2013-11-08 02:24:00,
2013-11-07 18:29:00,68.0,45.8,30.04,North,3,0.0,0.0,45,0.00,,,0.00,WUHU216WMR968SP,2013-11-08 02:29:00,
2013-11-07 18:34:00,68.0,45.8,30.04,North,3,0.0,0.0,45,0.00,,,0.00,WUHU216WMR968SP,2013-11-08 02:34:00,
2013-11-07 18:39:00,67.8,45.6,30.04,North,3,0.0,0.0,45,0.00,,,0.00,WUHU216WMR968SP,2013-11-08 02:39:00,
2013-11-07 18:44:00,68.0,45.8,30.04,North,3,0.0,0.0,45,0.00,,,0.00,WUHU216WMR968SP,2013-11-08 02:44:00,
2013-11-07 18:49:00,67.8,45.6,30.04,North,3,0.0,0.0,45,0.00,,,0.00,WUHU216WMR968SP,2013-11-08 02:49:00,
2013-11-07 18:54:00,67.5,45.4,30.04,North,3,0.0,0.0,45,0.00,,,0.00,WUHU216WMR968SP,2013-11-08 02:54:00,
2013-11-07 18:59:00,67.1,45.0,30.04,North,3,0.0,0.0,45,0.00,,,0.00,WUHU216WMR968SP,2013-11-08 02:59:00,
2013-11-07 19:04:00,66.6,44.5,30.04,North,3,0.0,0.0,45,0.00,,,0.00,WUHU216WMR968SP,2013-11-08 03:04:00,
2013-11-07 19:09:00,66.6,44.5,30.04,North,3,0.0,0.0,45,0.00,,,0.00,WUHU216WMR968SP,2013-11-08 03:09:00,
2013-11-07 19:14:00,66.4,44.4,30.04,North,3,0.0,0.0,45,0.00,,,0.00,WUHU216WMR968SP,2013-11-08 03:14:00,
2013-11-07 19:19:00,66.6,44.5,30.04,North,3,0.0,0.0,45,0.00,,,0.00,WUHU216WMR968SP,2013-11-08 03:19:00,
2013-11-07 19:24:00,66.7,44.6,30.04,North,3,0.0,0.0,45,0.00,,,0.00,WUHU216WMR968SP,2013-11-08 03:24:00,
2013-11-07 19:29:00,67.1,45.0,30.04,North,3,0.0,0.0,45,0.00,,,0.00,WUHU216WMR968SP,2013-11-08 03:29:00,
2013-11-07 19:34:00,67.5,45.4,30.04,North,3,0.0,0.0,45,0.00,,,0.00,WUHU216WMR968SP,2013-11-08 03:34:00,
2013-11-07 19:39:00,67.6,45.5,30.04,North,3,0.0,0.0,45,0.00,,,0.00,WUHU216WMR968SP,2013-11-08 03:39:00,
2013-11-07 19:44:00,67.6,45.5,30.04,North,3,0.0,0.0,45,0.00,,,0.00,WUHU216WMR968SP,2013-11-08 03:44:00,
2013-11-07 19:49:00,67.5,45.4,30.04,North,3,0.0,0.0,45,0.00,,,0.00,WUHU216WMR968SP,2013-11-08 03:49:00,
2013-11-07 19:54:00,67.3,45.2,30.04,North,3,0.0,0.0,45,0.00,,,0.00,WUHU216WMR968SP,2013-11-08 03:54:00,
2013-11-07 19:59:00,67.3,45.2,30.04,North,3,0.0,0.0,45,0.00,,,0.00,WUHU216WMR968SP,2013-11-08 03:59:00,
2013-11-07 20:04:00,66.9,44.8,30.04,North,3,0.0,0.0,45,0.00,,,0.00,WUHU216WMR968SP,2013-11-08 04:04:00,
2013-11-07 20:09:00,66.9,44.8,30.04,North,3,0.0,0.0,45,0.00,,,0.00,WUHU216WMR968SP,2013-11-08 04:09:00,
2013-11-07 20:14:00,66.7,44.6,30.04,North,3,0.0,0.0,45,0.00,,,0.00,WUHU216WMR968SP,2013-11-08 04:14:00,
2013-11-07 20:19:00,66.4,44.4,30.04,North,3,0.0,0.0,45,0.00,,,0.00,WUHU216WMR968SP,2013-11-08 04:19:00,
2013-11-07 20:24:00,66.4,44.4,30.04,North,3,0.0,0.0,45,0.00,,,0.00,WUHU216WMR968SP,2013-11-08 04:24:00,
2013-11-07 20:29:00,66.4,44.4,30.04,North,3,0.0,0.0,45,0.00,,,0.00,WUHU216WMR968SP,2013-11-08 04:29:00,
2013-11-07 20:34:00,66.0,44.0,30.04,North,3,0.0,0.0,45,0.00,,,0.00,WUHU216WMR968SP,2013-11-08 04:34:00,
2013-11-07 20:39:00,66.0,44.0,30.04,North,3,0.0,0.0,45,0.00,,,0.00,WUHU216WMR968SP,2013-11-08 04:39:00,
2013-11-07 20:44:00,66.0,44.0,30.04,North,3,0.0,0.0,45,0.00,,,0.00,WUHU216WMR968SP,2013-11-08 04:44:00,
2013-11-07 20:49:00,66.0,44.0,30.04,North,3,0.0,0.0,45,0.00,,,0.00,WUHU216WMR968SP,2013-11-08 04:49:00,
2013-11-07 20:54:00,66.4,44.4,30.04,North,3,0.0,0.0,45,0.00,,,0.00,WUHU216WMR968SP,2013-11-08 04:54:00,
2013-11-07 20:59:00,66.7,44.6,30.04,North,3,0.0,0.0,45,0.00,,,0.00,WUHU216WMR968SP,2013-11-08 04:59:00,
2013-11-07 21:04:00,66.9,44.8,30.04,North,3,0.0,0.0,45,0.00,,,0.00,WUHU216WMR968SP,2013-11-08 05:04:00,
2013-11-07 21:09:00,66.6,44.5,30.04,North,3,0.0,0.0,45,0.00,,,0.00,WUHU216WMR968SP,2013-11-08 05:09:00,
2013-11-07 21:14:00,66.6,44.5,30.04,North,3,0.0,0.0,45,0.00,,,0.00,WUHU216WMR968SP,2013-11-08 05:14:00,
2013-11-07 21:19:00,66.6,44.5,30.04,North,3,0.0,0.0,45,0.00,,,0.00,WUHU216WMR968SP,2013-11-08 05:19:00,
2013-11-07 21:24:00,66.4,44.4,30.04,North,3,0.0,0.0,45,0.00,,,0.00,WUHU216WMR968SP,2013-11-08 05:24:00,
2013-11-07 21:29:00,66.4,44.4,30.04,North,3,0.0,0.0,45,0.00,,,0.00,WUHU216WMR968SP,2013-11-08 05:29:00,
2013-11-07 21:34:00,66.2,44.2,30.04,North,3,0.0,0.0,45,0.00,,,0.00,WUHU216WMR968SP,2013-11-08 05:34:00,
2013-11-07 21:39:00,66.4,44.4,30.04,North,3,0.0,0.0,45,0.00,,,0.00,WUHU216WMR968SP,2013-11-08 05:39:00,
2013-11-07 21:44:00,66.6,44.5,30.07,North,3,0.0,0.0,45,0.00,,,0.00,WUHU216WMR968SP,2013-11-08 05:44:00,
2013-11-07 21:49:00,66.7,44.6,30.07,North,3,0.0,0.0,45,0.00,,,0.00,WUHU216WMR968SP,2013-11-08 05:49:00,
2013-11-07 21:54:00,66.4,44.4,30.07,North,3,0.0,0.0,45,0.00,,,0.00,WUHU216WMR968SP,2013-11-08 05:54:00,
2013-11-07 21:59:00,66.2,44.2,30.07,North,353,0.0,0.0,45,0.00,,,0.00,WUHU216WMR968SP,2013-11-08 05:59:00,
2013-11-07 22:04:00,66.2,44.2,30.07,North,353,0.0,0.0,45,0.00,,,0.00,WUHU216WMR968SP,2013-11-08 06:04:00,
2013-11-07 22:09:00,66.6,44.5,30.07,North,353,0.0,0.0,45,0.00,,,0.00,WUHU216WMR968SP,2013-11-08 06:09:00,
2013-11-07 22:14:00,66.4,44.4,30.07,North,353,0.0,0.0,45,0.00,,,0.00,WUHU216WMR968SP,2013-11-08 06:14:00,
2013-11-07 22:19:00,66.2,44.2,30.07,North,353,0.0,0.0,45,0.00,,,0.00,WUHU216WMR968SP,2013-11-08 06:19:00,
2013-11-07 22:24:00,66.0,44.0,30.07,North,353,0.0,0.0,45,0.00,,,0.00,WUHU216WMR968SP,2013-11-08 06:24:00,
2013-11-07 22:29:00,66.2,44.2,30.07,North,353,0.0,0.0,45,0.00,,,0.00,WUHU216WMR968SP,2013-11-08 06:29:00,
2013-11-07 22:34:00,66.2,44.2,30.07,North,353,0.0,0.0,45,0.00,,,0.00,WUHU216WMR968SP,2013-11-08 06:34:00,
2013-11-07 22:39:00,65.3,43.4,30.07,North,353,0.0,0.0,45,0.00,,,0.00,WUHU216WMR968SP,2013-11-08 06:39:00,
2013-11-07 22:44:00,64.8,42.9,30.07,South,179,0.0,3.6,45,0.00,,,0.00,WUHU216WMR968SP,2013-11-08 06:44:00,
2013-11-07 22:49:00,64.4,42.5,30.07,South,177,0.0,3.6,45,0.00,,,0.00,WUHU216WMR968SP,2013-11-08 06:49:00,
2013-11-07 22:54:00,64.2,42.9,30.07,South,177,0.0,3.1,46,0.00,,,0.00,WUHU216WMR968SP,2013-11-08 06:54:00,
2013-11-07 22:59:00,63.3,42.1,30.07,South,177,0.0,0.0,46,0.00,,,0.00,WUHU216WMR968SP,2013-11-08 06:59:00,
2013-11-07 23:04:00,62.8,41.7,30.07,South,177,0.0,0.0,46,0.00,,,0.00,WUHU216WMR968SP,2013-11-08 07:04:00,
2013-11-07 23:09:00,62.4,41.3,30.07,South,177,0.0,0.0,46,0.00,,,0.00,WUHU216WMR968SP,2013-11-08 07:09:00,
2013-11-07 23:14:00,62.2,41.1,30.07,South,177,0.0,0.0,46,0.00,,,0.00,WUHU216WMR968SP,2013-11-08 07:14:00,
2013-11-07 23:19:00,62.1,41.0,30.07,South,177,0.0,0.0,46,0.00,,,0.00,WUHU216WMR968SP,2013-11-08 07:19:00,
2013-11-07 23:24:00,61.7,40.7,30.07,South,177,0.0,0.0,46,0.00,,,0.00,WUHU216WMR968SP,2013-11-08 07:24:00,
2013-11-07 23:29:00,61.3,40.3,30.07,SSE,162,0.0,0.0,46,0.00,,,0.00,WUHU216WMR968SP,2013-11-08 07:29:00,
2013-11-07 23:34:00,61.5,40.5,30.07,SSE,162,0.0,0.0,46,0.00,,,0.00,WUHU216WMR968SP,2013-11-08 07:34:00,
2013-11-07 23:39:00,61.7,40.7,30.07,SSE,162,0.0,0.0,46,0.00,,,0.00,WUHU216WMR968SP,2013-11-08 07:39:00,
2013-11-07 23:44:00,61.9,40.8,30.07,SSE,162,0.0,0.0,46,0.00,,,0.00,WUHU216WMR968SP,2013-11-08 07:44:00,
2013-11-07 23:49:00,61.7,40.7,30.07,SSE,162,0.0,0.0,46,0.00,,,0.00,WUHU216WMR968SP,2013-11-08 07:49:00,
2013-11-07 23:54:00,61.5,40.5,30.07,SSE,162,0.0,0.0,46,0.00,,,0.00,WUHU216WMR968SP,2013-11-08 07:54:00,
2013-11-07 23:59:00,61.0,40.0,30.07,SSE,162,0.0,0.0,46,0.00,,,0.00,WUHU216WMR968SP,2013-11-08 07:59:00,